createdAt,value
2018-07-25T00:01:52.705Z,99.90
2018-07-25T00:04:23.740Z,99.90
2018-07-25T00:06:54.791Z,99.90
2018-07-25T00:09:25.901Z,99.90
2018-07-25T00:11:57.002Z,99.90
2018-07-25T00:14:28.009Z,99.90
2018-07-25T00:16:58.998Z,99.90
2018-07-25T00:19:29.851Z,99.90
2018-07-25T00:22:00.555Z,99.90
2018-07-25T00:24:31.519Z,99.90
2018-07-25T00:27:02.309Z,99.90
2018-07-25T00:29:33.429Z,99.90
2018-07-25T00:32:04.269Z,99.90
2018-07-25T00:34:35.361Z,99.90
2018-07-25T00:37:06.166Z,99.90
2018-07-25T00:39:37.052Z,99.90
2018-07-25T00:42:11.342Z,99.90
2018-07-25T00:44:42.248Z,99.90
2018-07-25T00:47:13.519Z,99.90
2018-07-25T00:49:44.377Z,99.90
2018-07-25T00:52:15.404Z,99.90
2018-07-25T00:54:46.363Z,99.90
2018-07-25T00:57:17.425Z,99.90
2018-07-25T00:59:48.226Z,99.90
2018-07-25T01:02:19.032Z,99.90
2018-07-25T01:04:50.195Z,99.90
2018-07-25T01:07:21.302Z,99.90
2018-07-25T01:09:52.155Z,99.90
2018-07-25T01:12:23.133Z,99.90
2018-07-25T01:14:54.288Z,99.90
2018-07-25T01:17:25.375Z,99.90
2018-07-25T01:19:56.456Z,99.90
2018-07-25T01:22:27.526Z,99.90
2018-07-25T01:24:58.554Z,99.90
2018-07-25T01:27:29.603Z,99.90
2018-07-25T01:30:00.694Z,99.90
2018-07-25T01:32:31.526Z,99.90
2018-07-25T01:35:02.419Z,99.90
2018-07-25T01:37:33.205Z,99.90
2018-07-25T01:40:04.319Z,99.90
2018-07-25T01:42:35.015Z,99.90
2018-07-25T01:45:06.135Z,99.90
2018-07-25T01:47:37.353Z,99.90
2018-07-25T01:50:08.890Z,99.90
2018-07-25T01:52:40.758Z,99.90
2018-07-25T01:55:11.605Z,99.90
2018-07-25T01:57:42.667Z,99.90
2018-07-25T02:00:13.736Z,99.90
2018-07-25T02:02:44.554Z,99.90
2018-07-25T02:05:15.690Z,99.90
2018-07-25T02:07:46.632Z,99.90
2018-07-25T02:10:17.834Z,99.90
2018-07-25T02:12:48.880Z,99.90
2018-07-25T02:15:19.768Z,99.90
2018-07-25T02:17:50.708Z,99.90
2018-07-25T02:20:22.007Z,99.90
2018-07-25T02:22:52.884Z,99.90
2018-07-25T02:25:23.815Z,99.90
2018-07-25T02:27:54.897Z,99.90
2018-07-25T02:30:26.065Z,99.90
2018-07-25T02:32:57.074Z,99.90
2018-07-25T02:35:28.020Z,99.90
2018-07-25T02:37:58.825Z,99.90
2018-07-25T02:40:29.722Z,99.90
2018-07-25T02:43:01.032Z,99.90
2018-07-25T02:45:37.047Z,99.90
2018-07-25T02:48:07.863Z,99.90
2018-07-25T02:50:38.733Z,99.90
2018-07-25T02:53:10.375Z,99.90
2018-07-25T02:55:41.360Z,99.90
2018-07-25T02:58:12.382Z,99.90
2018-07-25T03:00:43.556Z,99.90
2018-07-25T03:03:14.386Z,99.90
2018-07-25T03:05:45.269Z,99.90
2018-07-25T03:08:16.348Z,99.90
2018-07-25T03:10:54.719Z,99.90
2018-07-25T03:13:26.257Z,99.90
2018-07-25T03:16:03.618Z,99.90
2018-07-25T03:18:34.574Z,99.90
2018-07-25T03:21:05.646Z,99.90
2018-07-25T03:23:37.161Z,99.90
2018-07-25T03:26:08.208Z,99.90
2018-07-25T03:28:39.212Z,99.90
2018-07-25T03:31:10.223Z,99.90
2018-07-25T03:33:41.087Z,99.90
2018-07-25T03:36:11.940Z,99.90
2018-07-25T03:41:12.884Z,99.90
2018-07-25T03:43:43.844Z,99.90
2018-07-25T03:46:22.813Z,99.90
2018-07-25T03:48:53.701Z,99.90
2018-07-25T03:51:24.586Z,99.90
2018-07-25T03:53:55.433Z,99.90
2018-07-25T03:56:26.395Z,99.90
2018-07-25T03:58:57.363Z,99.90
2018-07-25T04:01:28.512Z,99.90
2018-07-25T04:03:59.569Z,99.90
2018-07-25T04:06:30.591Z,99.90
2018-07-25T04:09:01.517Z,99.90
2018-07-25T04:11:32.769Z,99.90
2018-07-25T04:14:07.061Z,99.90
2018-07-25T04:16:38.041Z,99.90
2018-07-25T04:19:08.856Z,99.90
2018-07-25T04:24:52.343Z,99.90
2018-07-25T04:27:26.790Z,99.90
2018-07-25T04:30:07.929Z,99.90
2018-07-25T04:32:39.098Z,99.90
2018-07-25T04:35:11.251Z,99.90
2018-07-25T04:37:42.903Z,99.90
2018-07-25T04:40:16.986Z,99.90
2018-07-25T04:42:47.852Z,99.90
2018-07-25T04:45:18.825Z,99.90
2018-07-25T04:47:50.784Z,99.90
2018-07-25T04:50:22.011Z,99.90
2018-07-25T04:52:53.058Z,99.90
2018-07-25T04:55:23.925Z,99.90
2018-07-25T04:57:55.413Z,99.90
2018-07-25T05:00:26.538Z,99.90
2018-07-25T05:02:57.484Z,99.90
2018-07-25T05:05:28.556Z,99.90
2018-07-25T05:07:59.667Z,99.90
2018-07-25T05:10:30.890Z,99.90
2018-07-25T05:13:02.038Z,99.90
2018-07-25T05:15:32.742Z,99.90
2018-07-25T05:18:04.555Z,99.90
2018-07-25T05:20:57.773Z,98.60
2018-07-25T05:23:28.928Z,97.20
2018-07-25T05:25:59.893Z,95.10
2018-07-25T05:28:30.888Z,93.60
2018-07-25T05:31:05.826Z,92.30
2018-07-25T05:33:36.811Z,91.40
2018-07-25T05:36:07.636Z,90.40
2018-07-25T05:38:38.397Z,90.20
2018-07-25T05:41:09.144Z,88.00
2018-07-25T05:43:39.898Z,86.50
2018-07-25T05:46:10.693Z,85.80
2018-07-25T05:48:41.699Z,85.60
2018-07-25T05:51:12.407Z,84.50
2018-07-25T05:53:43.476Z,83.70
2018-07-25T05:56:14.335Z,82.80
2018-07-25T06:01:15.083Z,82.50
2018-07-25T06:03:46.086Z,82.50
2018-07-25T06:06:16.965Z,82.10
2018-07-25T06:08:48.185Z,82.60
2018-07-25T06:11:18.884Z,83.10
2018-07-25T06:13:49.798Z,81.80
2018-07-25T06:16:20.587Z,82.10
2018-07-25T06:18:51.298Z,82.00
2018-07-25T06:21:22.023Z,82.30
2018-07-25T06:23:52.780Z,82.70
2018-07-25T06:26:23.473Z,82.60
2018-07-25T06:28:54.499Z,82.60
2018-07-25T06:31:25.621Z,82.00
2018-07-25T06:33:56.285Z,80.60
2018-07-25T06:36:26.944Z,81.60
2018-07-25T06:38:57.678Z,81.40
2018-07-25T06:41:28.345Z,77.50
2018-07-25T06:43:59.115Z,76.00
2018-07-25T06:46:29.751Z,75.60
2018-07-25T06:49:00.470Z,75.70
2018-07-25T06:51:31.444Z,73.20
2018-07-25T06:54:02.513Z,74.90
2018-07-25T06:56:33.417Z,73.90
2018-07-25T06:59:04.291Z,73.00
2018-07-25T07:01:35.132Z,71.70
2018-07-25T07:04:06.189Z,72.50
2018-07-25T07:06:37.038Z,71.10
2018-07-25T07:11:38.019Z,68.40
2018-07-25T07:14:08.793Z,67.20
2018-07-25T07:16:39.474Z,67.20
2018-07-25T07:19:10.409Z,64.80
2018-07-25T07:21:41.397Z,65.20
2018-07-25T07:24:12.095Z,64.80
2018-07-25T07:26:42.756Z,64.70
2018-07-25T07:29:13.513Z,64.10
2018-07-25T07:31:44.329Z,63.40
2018-07-25T07:34:15.311Z,63.40
2018-07-25T07:36:46.067Z,62.00
2018-07-25T07:39:17.093Z,61.20
2018-07-25T07:41:47.849Z,61.10
2018-07-25T07:44:18.782Z,61.50
2018-07-25T07:46:49.908Z,62.00
2018-07-25T07:49:20.573Z,60.70
2018-07-25T07:51:51.794Z,61.00
2018-07-25T07:54:22.451Z,60.30
2018-07-25T07:56:53.144Z,60.40
2018-07-25T07:59:23.954Z,61.10
2018-07-25T08:01:54.954Z,60.50
2018-07-25T08:04:25.982Z,59.70
2018-07-25T08:06:57.429Z,60.00
2018-07-25T08:09:28.483Z,59.40
2018-07-25T08:11:59.205Z,58.70
2018-07-25T08:14:30.046Z,58.70
2018-07-25T08:17:00.719Z,58.40
2018-07-25T08:19:31.510Z,58.60
2018-07-25T08:22:02.175Z,58.10
2018-07-25T08:24:33.121Z,58.20
2018-07-25T08:27:03.977Z,58.10
2018-07-25T08:29:34.848Z,56.60
2018-07-25T08:32:05.680Z,57.00
2018-07-25T08:34:36.415Z,57.20
2018-07-25T08:37:07.425Z,56.20
2018-07-25T08:39:38.207Z,56.50
2018-07-25T08:42:09.079Z,56.30
2018-07-25T08:44:39.740Z,55.40
2018-07-25T08:47:10.653Z,55.60
2018-07-25T08:49:41.671Z,54.90
2018-07-25T08:52:12.615Z,55.40
2018-07-25T08:54:43.275Z,54.00
2018-07-25T08:57:13.976Z,54.20
2018-07-25T08:59:44.970Z,53.60
2018-07-25T09:02:15.969Z,53.30
2018-07-25T09:04:46.717Z,52.40
2018-07-25T09:07:17.514Z,51.20
2018-07-25T09:09:48.161Z,51.30
2018-07-25T09:12:18.915Z,49.80
2018-07-25T09:14:49.500Z,50.20
2018-07-25T09:17:20.182Z,50.20
2018-07-25T09:19:51.035Z,50.60
2018-07-25T09:22:21.988Z,50.50
2018-07-25T09:24:52.719Z,50.20
2018-07-25T09:27:23.645Z,50.40
2018-07-25T09:29:54.592Z,50.80
2018-07-25T09:32:25.458Z,49.90
2018-07-25T09:37:26.165Z,49.30
2018-07-25T09:39:56.879Z,49.50
2018-07-25T09:42:27.687Z,50.00
2018-07-25T09:44:58.346Z,50.10
2018-07-25T09:47:29.254Z,50.20
2018-07-25T09:50:00.252Z,50.80
2018-07-25T09:52:31.317Z,50.60
2018-07-25T09:55:02.068Z,50.40
2018-07-25T09:57:32.841Z,50.10
2018-07-25T10:00:03.963Z,50.20
2018-07-25T10:02:34.947Z,50.00
2018-07-25T10:05:06.071Z,50.20
2018-07-25T10:07:36.729Z,49.50
2018-07-25T10:10:07.978Z,49.20
2018-07-25T10:12:38.827Z,49.10
2018-07-25T10:15:09.767Z,48.60
2018-07-25T10:17:40.582Z,49.20
2018-07-25T10:20:11.611Z,48.70
2018-07-25T10:22:42.487Z,48.90
2018-07-25T10:25:13.195Z,48.70
2018-07-25T10:27:43.935Z,48.90
2018-07-25T10:30:15.087Z,49.70
2018-07-25T10:32:46.025Z,49.20
2018-07-25T10:35:16.990Z,49.10
2018-07-25T10:37:47.733Z,49.30
2018-07-25T10:40:18.424Z,49.80
2018-07-25T10:42:49.105Z,49.50
2018-07-25T10:45:20.208Z,49.30
2018-07-25T10:47:51.049Z,49.00
2018-07-25T10:50:21.778Z,48.10
2018-07-25T10:52:52.815Z,48.00
2018-07-25T10:55:23.517Z,48.10
2018-07-25T10:57:54.649Z,48.50
2018-07-25T11:00:25.256Z,46.90
2018-07-25T11:02:56.362Z,47.90
2018-07-25T11:05:27.145Z,47.80
2018-07-25T11:07:57.825Z,47.40
2018-07-25T11:10:28.513Z,47.60
2018-07-25T11:12:59.277Z,46.60
2018-07-25T11:15:29.964Z,47.50
2018-07-25T11:18:00.708Z,47.00
2018-07-25T11:20:31.448Z,47.00
2018-07-25T11:23:02.374Z,47.40
2018-07-25T11:25:33.094Z,46.60
2018-07-25T11:28:03.741Z,46.40
2018-07-25T11:30:34.348Z,45.60
2018-07-25T11:33:04.980Z,45.30
2018-07-25T11:35:35.878Z,44.30
2018-07-25T11:38:07.012Z,43.90
2018-07-25T11:40:37.953Z,43.10
2018-07-25T11:43:08.884Z,43.50
2018-07-25T11:45:39.829Z,44.90
2018-07-25T11:48:10.781Z,43.70
2018-07-25T11:50:41.500Z,43.50
2018-07-25T11:53:12.329Z,43.60
2018-07-25T11:55:43.019Z,43.20
2018-07-25T11:58:13.719Z,42.80
2018-07-25T12:00:44.428Z,41.90
2018-07-25T12:03:15.394Z,41.40
2018-07-25T12:05:46.100Z,42.00
2018-07-25T12:08:16.799Z,42.40
2018-07-25T12:10:47.597Z,42.70
2018-07-25T12:13:18.374Z,42.20
2018-07-25T12:15:49.069Z,42.40
2018-07-25T12:18:19.821Z,40.40
2018-07-25T12:20:50.458Z,40.10
2018-07-25T12:23:22.137Z,40.10
2018-07-25T12:25:52.879Z,39.80
2018-07-25T12:28:24.065Z,40.40
2018-07-25T12:30:54.679Z,41.00
2018-07-25T12:33:25.321Z,40.50
2018-07-25T12:35:56.688Z,40.30
2018-07-25T12:38:27.353Z,39.60
2018-07-25T12:40:58.457Z,39.20
2018-07-25T12:43:29.339Z,37.90
2018-07-25T12:46:00.282Z,38.90
2018-07-25T12:48:31.021Z,38.20
2018-07-25T12:51:01.742Z,39.20
2018-07-25T12:53:32.545Z,39.10
2018-07-25T12:56:03.279Z,38.90
2018-07-25T12:58:34.219Z,39.60
2018-07-25T13:01:04.902Z,39.60
2018-07-25T13:03:35.585Z,39.90
2018-07-25T13:06:06.469Z,40.10
2018-07-25T13:08:37.257Z,39.90
2018-07-25T13:11:07.945Z,39.50
2018-07-25T13:13:38.776Z,38.80
2018-07-25T13:16:09.741Z,39.10
2018-07-25T13:18:40.997Z,39.50
2018-07-25T13:21:11.935Z,38.90
2018-07-25T13:23:48.427Z,39.30
2018-07-25T13:26:19.149Z,39.60
2018-07-25T13:28:50.134Z,39.50
2018-07-25T13:31:21.143Z,39.20
2018-07-25T13:33:52.225Z,39.80
2018-07-25T13:36:23.039Z,39.40
2018-07-25T13:38:54.054Z,39.60
2018-07-25T13:41:24.985Z,38.40
2018-07-25T13:43:55.799Z,38.50
2018-07-25T13:46:26.753Z,38.20
2018-07-25T13:48:57.590Z,38.30
2018-07-25T13:51:28.494Z,38.80
2018-07-25T13:53:59.414Z,39.20
2018-07-25T13:56:30.072Z,39.20
2018-07-25T13:59:00.717Z,38.80
2018-07-25T14:01:31.482Z,38.50
2018-07-25T14:04:02.316Z,38.20
2018-07-25T14:06:33.468Z,38.70
2018-07-25T14:09:04.619Z,37.40
2018-07-25T14:11:35.353Z,37.90
2018-07-25T14:14:06.192Z,38.20
2018-07-25T14:16:37.119Z,38.90
2018-07-25T14:19:08.679Z,38.70
2018-07-25T14:21:39.560Z,37.60
2018-07-25T14:24:10.502Z,37.80
2018-07-25T14:26:41.300Z,38.00
2018-07-25T14:29:12.294Z,38.30
2018-07-25T14:34:13.018Z,38.70
2018-07-25T14:36:44.130Z,37.90
2018-07-25T14:39:15.077Z,37.90
2018-07-25T14:41:46.066Z,38.20
2018-07-25T14:44:16.729Z,37.30
2018-07-25T14:46:47.450Z,37.70
2018-07-25T14:49:18.149Z,37.30
2018-07-25T14:51:49.215Z,37.40
2018-07-25T14:54:20.210Z,37.30
2018-07-25T14:56:51.630Z,37.50
2018-07-25T14:59:22.703Z,37.80
2018-07-25T15:01:53.618Z,38.10
2018-07-25T15:06:54.261Z,38.20
2018-07-25T15:09:25.010Z,38.20
2018-07-25T15:11:55.962Z,38.50
2018-07-25T15:14:26.607Z,38.40
2018-07-25T15:16:57.357Z,38.40
2018-07-25T15:19:28.410Z,38.40
2018-07-25T15:21:59.255Z,38.00
2018-07-25T15:24:30.128Z,37.60
2018-07-25T15:27:02.267Z,38.10
2018-07-25T15:29:33.305Z,37.30
2018-07-25T15:32:04.137Z,37.70
2018-07-25T15:34:34.794Z,37.80
2018-07-25T15:37:05.673Z,37.90
2018-07-25T15:39:37.075Z,38.40
2018-07-25T15:42:08.346Z,38.40
2018-07-25T15:44:39.315Z,38.60
2018-07-25T15:47:10.084Z,39.10
2018-07-25T15:49:40.774Z,39.40
2018-07-25T15:52:11.610Z,39.20
2018-07-25T15:54:42.337Z,38.40
2018-07-25T15:57:13.067Z,38.10
2018-07-25T15:59:44.512Z,38.70
2018-07-25T16:02:15.255Z,38.40
2018-07-25T16:04:49.206Z,38.70
2018-07-25T16:07:20.166Z,38.00
2018-07-25T16:09:50.892Z,37.80
2018-07-25T16:12:21.591Z,38.60
2018-07-25T16:17:30.487Z,38.10
2018-07-25T16:20:01.190Z,38.00
2018-07-25T16:22:31.914Z,38.60
2018-07-25T16:25:02.848Z,38.80
2018-07-25T16:27:33.477Z,38.00
2018-07-25T16:33:34.201Z,38.20
2018-07-25T16:36:04.956Z,38.20
2018-07-25T16:38:36.013Z,38.80
2018-07-25T16:41:06.839Z,39.00
2018-07-25T16:43:37.505Z,39.20
2018-07-25T16:46:08.227Z,38.90
2018-07-25T16:48:39.167Z,38.70
2018-07-25T16:51:09.876Z,38.90
2018-07-25T16:53:46.955Z,39.00
2018-07-25T16:56:17.738Z,38.70
2018-07-25T16:58:48.711Z,38.40
2018-07-25T17:01:19.772Z,38.50
2018-07-25T17:03:50.472Z,37.40
2018-07-25T17:09:16.785Z,34.20
2018-07-25T17:11:47.632Z,33.70
2018-07-25T17:14:26.382Z,33.20
2018-07-25T17:16:57.324Z,33.20
2018-07-25T17:19:28.473Z,33.10
2018-07-25T17:21:59.170Z,33.20
2018-07-25T17:24:41.332Z,33.80
2018-07-25T17:27:12.087Z,34.30
2018-07-25T17:29:42.792Z,33.00
2018-07-25T17:32:13.739Z,32.60
2018-07-25T17:34:44.415Z,31.70
2018-07-25T17:37:15.109Z,31.00
2018-07-25T17:39:45.733Z,30.40
2018-07-25T17:42:16.510Z,30.10
2018-07-25T17:44:47.277Z,30.30
2018-07-25T17:47:17.977Z,30.60
2018-07-25T17:49:52.367Z,30.20
